Cape Lisburne Lrrs Airport
PALU : now visible

Aeroporto :











RITROVATECI SU...

 
LOGIN :

Iscrizione | Disclaimer

   EN    FR    IT 

 









Sommario :    VFR   VFR Marginale   IFR   IFR Intensivo   IFR Molto Intensivo
Visibilità : 
Base nubi : 
>= 8 km
>= 3000ft
5 / 8 km
1000 / 3000 ft
1500m / 5 km
500 / 1000 ft
800 / 1500m
200 / 500 ft
< 800m
< 200 ft
Simboli :   Temporali  Nebbia  Neve Forte  Precipitazioni Forti  Vento > 20 kt






- Altitudine del aeroporto : 16 ft
- Codice IATA : LUR


PALU - Cape Lisburne Lrrs

ULTIMO METAR :
  • 100333Z AUTO 15023KT 2SM -SN BR BKN002 M14/M17 A3024 RMK AO2 PK WND 11026/0257 SLP241

METARs OBSOLETI :
  • 100313Z AUTO 15023KT 030V300 1 3/4SM -SN BR BKN003 M14/M17 A3024 RMK AO2 PK WND 11026/0257 SLP241
  • 100255Z AUTO 13023KT 010V310 2 1/2SM -SN BR BKN003 M13/M16 A3024 RMK AO2 SNB0155 SLP241 P0000 60000 T11351165 52005
  • 100233Z AUTO 15023KT 030V200 3SM -SN BKN003 M14/M16 A3024 RMK AO2 SLP241
  • 100213Z AUTO 16021KT 060V220 5SM -SN OVC004 M14/M16 A3024 RMK AO2 SLP240
  • 100155Z AUTO 16021KT 340V260 3SM -SN OVC004 M13/M16 A3024 RMK AO2 SNB2355 SLP240 P0000 T11351164
  • 100133Z AUTO 17020KT 120V250 3SM -SN OVC005 M14/M16 A3024 RMK AO2 SLP240
  • 100113Z AUTO 17019KT 090V210 2 1/2SM -SN BR OVC006 M14/M16 A3024 RMK AO2 SLP240
  • 100055Z AUTO 16021KT 090V210 1 1/4SM -SN BR OVC006 M14/M17 A3024 RMK AO2 SNB2355 SLP239 P0000 T11361166

Previsioni scadute.



MetMap, La meteo Aeronautica in un colpo d'occhio ! - Copyright ORBIFLY Dicembre 2007 - Disclaimer

ORBIFLY MET'MAP TEAM :

Programmazione e sviluppo : Alexandra Zaïnal
Concezione : Baudouin d'Aumeries
Aiuto per la programmazione : Marc-Olivier Méhu
Supporto tecnico e logistico : Manuel Goepfert
Aiuto per la traduzione : Arnaldo La Scala

Contatto : metmap@orbifly.com




FONTI E CREDITI :

   NOAA       Earth
Advisory